createdAt,value
2023-03-17T00:03:42.029Z,1.40
2023-03-17T00:08:46.277Z,1.60
2023-03-17T00:13:49.770Z,1.65
2023-03-17T00:18:55.582Z,1.50
2023-03-17T00:23:59.483Z,1.45
2023-03-17T00:29:02.214Z,1.70
2023-03-17T00:34:07.817Z,2.10
2023-03-17T00:39:17.939Z,1.50
2023-03-17T00:44:20.631Z,1.40
2023-03-17T00:49:26.621Z,1.70
2023-03-17T00:54:29.887Z,1.50
2023-03-17T00:59:40.136Z,1.52
2023-03-17T01:04:59.564Z,1.80
2023-03-17T01:10:14.115Z,1.60
2023-03-17T01:15:17.711Z,1.50
2023-03-17T01:20:23.660Z,1.58
2023-03-17T01:25:27.552Z,1.70
2023-03-17T01:30:32.761Z,1.60
2023-03-17T01:35:38.253Z,1.80
2023-03-17T01:40:44.850Z,1.70
2023-03-17T01:46:17.171Z,1.60
2023-03-17T01:51:27.559Z,1.80
2023-03-17T01:56:30.651Z,2.17
2023-03-17T02:01:38.739Z,1.58
2023-03-17T02:06:56.928Z,1.90
2023-03-17T02:12:02.787Z,2.00
2023-03-17T02:17:06.034Z,1.77
2023-03-17T02:22:10.429Z,1.90
2023-03-17T02:27:16.407Z,2.50
2023-03-17T02:32:20.451Z,2.20
2023-03-17T02:37:24.579Z,2.20
2023-03-17T02:42:28.573Z,1.95
2023-03-17T02:47:34.720Z,2.42
2023-03-17T02:52:38.775Z,2.25
2023-03-17T02:57:41.899Z,2.15
2023-03-17T03:02:44.696Z,2.20
2023-03-17T03:07:48.813Z,2.55
2023-03-17T03:12:51.803Z,2.55
2023-03-17T03:17:54.516Z,2.50
2023-03-17T03:22:58.848Z,2.55
2023-03-17T03:28:01.605Z,2.50
2023-03-17T03:33:04.740Z,2.17
2023-03-17T03:38:09.588Z,2.88
2023-03-17T03:43:22.840Z,2.40
2023-03-17T03:48:26.574Z,2.83
2023-03-17T03:53:30.901Z,3.13
2023-03-17T03:58:33.640Z,2.97
2023-03-17T04:03:37.146Z,3.05
2023-03-17T04:08:41.260Z,3.05
2023-03-17T04:13:43.976Z,2.90
2023-03-17T04:18:46.751Z,2.97
2023-03-17T04:23:50.984Z,3.03
2023-03-17T04:28:54.640Z,3.40
2023-03-17T04:33:57.412Z,3.00
2023-03-17T04:39:01.954Z,3.00
2023-03-17T04:44:04.864Z,3.20
2023-03-17T04:49:07.600Z,2.90
2023-03-17T04:54:12.189Z,3.05
2023-03-17T04:59:16.212Z,3.55
2023-03-17T05:04:31.350Z,3.40
2023-03-17T05:09:36.244Z,3.40
2023-03-17T05:14:39.151Z,3.40
2023-03-17T05:19:42.473Z,3.70
2023-03-17T05:24:47.530Z,3.55
2023-03-17T05:29:50.392Z,3.67
2023-03-17T05:34:54.213Z,3.65
2023-03-17T05:39:58.304Z,3.72
2023-03-17T05:45:01.082Z,3.58
2023-03-17T05:50:04.901Z,3.83
2023-03-17T05:55:10.126Z,3.67
2023-03-17T06:00:17.103Z,3.83
2023-03-17T06:05:19.883Z,3.72
2023-03-17T06:10:24.022Z,4.05
2023-03-17T06:15:27.083Z,3.85
2023-03-17T06:20:30.066Z,3.78
2023-03-17T06:25:34.958Z,3.60
2023-03-17T06:30:40.622Z,3.70
2023-03-17T06:35:43.758Z,3.67
2023-03-17T06:40:47.922Z,4.10
2023-03-17T06:45:51.510Z,4.15
2023-03-17T06:50:54.298Z,4.28
2023-03-17T06:55:58.628Z,3.92
2023-03-17T07:01:01.367Z,4.00
2023-03-17T07:06:04.319Z,5.35
2023-03-17T07:11:09.396Z,3.60
2023-03-17T07:16:15.143Z,3.30
2023-03-17T07:21:18.117Z,3.88
2023-03-17T07:26:22.404Z,3.33
2023-03-17T07:31:25.530Z,3.47
2023-03-17T07:36:28.286Z,3.33
2023-03-17T07:41:32.361Z,3.35
2023-03-17T07:46:35.113Z,3.50
2023-03-17T07:51:38.682Z,3.42
2023-03-17T07:56:43.405Z,3.33
2023-03-17T08:01:46.164Z,3.40
2023-03-17T08:06:49.379Z,3.65
2023-03-17T08:11:53.700Z,3.78
2023-03-17T08:16:57.274Z,3.45
2023-03-17T08:22:00.085Z,3.50
2023-03-17T08:27:04.983Z,3.67
2023-03-17T08:32:08.661Z,3.35
2023-03-17T08:37:12.208Z,3.90
2023-03-17T08:42:17.042Z,3.85
2023-03-17T08:47:20.222Z,3.55
2023-03-17T08:52:23.338Z,3.50
2023-03-17T08:57:28.085Z,3.25
2023-03-17T09:02:30.862Z,3.13
2023-03-17T09:07:34.159Z,2.97
2023-03-17T09:12:38.788Z,3.15
2023-03-17T09:17:43.725Z,3.03
2023-03-17T09:22:47.748Z,3.33
2023-03-17T09:27:52.054Z,3.03
2023-03-17T09:32:54.896Z,2.75
2023-03-17T09:37:57.949Z,2.88
2023-03-17T09:43:16.297Z,2.63
2023-03-17T09:48:33.610Z,2.47
2023-03-17T09:53:39.115Z,2.90
2023-03-17T09:58:50.701Z,2.70
2023-03-17T10:03:53.959Z,2.72
2023-03-17T10:09:01.612Z,3.55
2023-03-17T10:14:13.752Z,2.70
2023-03-17T10:19:25.696Z,2.38
2023-03-17T10:24:32.685Z,2.65
2023-03-17T10:29:37.041Z,2.40
2023-03-17T10:34:41.477Z,2.65
2023-03-17T10:39:47.196Z,2.40
2023-03-17T10:44:55.240Z,2.25
2023-03-17T10:49:59.480Z,2.25
2023-03-17T10:55:05.562Z,2.80
2023-03-17T11:00:19.885Z,2.58
2023-03-17T11:05:25.135Z,2.50
2023-03-17T11:10:30.177Z,2.50
2023-03-17T11:15:37.813Z,2.35
2023-03-17T11:20:46.924Z,2.80
2023-03-17T11:26:00.493Z,2.28
2023-03-17T11:31:13.092Z,2.35
2023-03-17T11:36:29.465Z,2.28
2023-03-17T11:41:54.117Z,2.90
2023-03-17T11:47:04.117Z,2.25
2023-03-17T11:52:16.523Z,2.25
2023-03-17T11:57:24.706Z,1.90
2023-03-17T12:02:38.153Z,1.90
2023-03-17T12:07:47.224Z,2.13
2023-03-17T12:12:56.435Z,2.15
2023-03-17T12:18:05.586Z,2.00
2023-03-17T12:23:19.848Z,1.98
2023-03-17T12:28:25.824Z,1.85
2023-03-17T12:33:34.959Z,2.15
2023-03-17T12:38:41.074Z,1.95
2023-03-17T12:43:55.778Z,2.10
2023-03-17T12:49:31.045Z,2.25
2023-03-17T12:54:37.561Z,2.92
2023-03-17T12:59:43.836Z,2.05
2023-03-17T13:04:57.752Z,1.83
2023-03-17T13:10:38.193Z,1.63
2023-03-17T13:15:59.356Z,2.10
2023-03-17T13:21:13.743Z,1.95
2023-03-17T13:26:20.954Z,2.22
2023-03-17T13:31:34.678Z,2.00
2023-03-17T13:36:59.083Z,2.17
2023-03-17T13:42:37.312Z,1.70
2023-03-17T13:47:43.334Z,1.83
2023-03-17T13:52:49.686Z,1.90
2023-03-17T13:58:16.493Z,1.95
2023-03-17T14:03:29.048Z,1.90
2023-03-17T14:08:34.686Z,2.38
2023-03-17T14:13:46.268Z,1.98
2023-03-17T14:18:54.874Z,2.55
2023-03-17T14:23:59.189Z,1.90
2023-03-17T14:29:04.723Z,1.98
2023-03-17T14:34:14.678Z,1.50
2023-03-17T14:39:23.040Z,1.40
2023-03-17T14:44:25.888Z,1.90
2023-03-17T14:49:31.769Z,1.63
2023-03-17T14:54:36.557Z,1.83
2023-03-17T14:59:41.449Z,1.60
2023-03-17T15:04:53.995Z,1.70
2023-03-17T15:10:01.526Z,1.88
2023-03-17T15:15:10.014Z,1.80
2023-03-17T15:20:18.153Z,3.40
2023-03-17T15:25:28.513Z,2.20
2023-03-17T15:30:44.327Z,1.90
2023-03-17T15:35:51.137Z,1.48
2023-03-17T15:40:54.518Z,1.63
2023-03-17T15:46:01.304Z,2.13
2023-03-17T15:51:07.152Z,1.80
2023-03-17T15:56:19.047Z,1.60
2023-03-17T16:01:22.173Z,2.00
2023-03-17T16:06:26.418Z,1.80
2023-03-17T16:11:31.788Z,1.80
2023-03-17T16:16:38.081Z,1.80
2023-03-17T16:21:42.384Z,1.80
2023-03-17T16:26:45.386Z,3.35
2023-03-17T16:31:49.921Z,2.75
2023-03-17T16:36:54.535Z,3.42
2023-03-17T16:41:57.484Z,2.38
2023-03-17T16:47:00.478Z,2.60
2023-03-17T16:52:04.977Z,1.95
2023-03-17T16:57:08.146Z,2.92
2023-03-17T17:02:17.130Z,2.80
2023-03-17T17:07:21.204Z,1.80
2023-03-17T17:12:23.965Z,2.13
2023-03-17T17:17:28.159Z,1.88
2023-03-17T17:22:32.326Z,2.33
2023-03-17T17:27:35.029Z,1.90
2023-03-17T17:32:38.020Z,2.20
2023-03-17T17:37:42.206Z,3.35
2023-03-17T17:42:46.348Z,2.30
2023-03-17T17:47:49.954Z,3.20
2023-03-17T17:52:54.942Z,3.10
2023-03-17T17:57:57.769Z,2.72
2023-03-17T18:03:00.488Z,2.70
2023-03-17T18:08:05.120Z,2.47
2023-03-17T18:13:07.954Z,2.28
2023-03-17T18:18:10.853Z,2.60
2023-03-17T18:23:15.992Z,2.92
2023-03-17T18:28:18.785Z,2.90
2023-03-17T18:33:21.968Z,3.10
2023-03-17T18:38:26.332Z,3.10
2023-03-17T18:43:29.219Z,3.20
2023-03-17T18:48:32.050Z,3.10
2023-03-17T18:53:36.673Z,2.97
2023-03-17T18:58:39.473Z,3.10
2023-03-17T19:03:42.253Z,3.05
2023-03-17T19:08:46.764Z,3.33
2023-03-17T19:13:50.098Z,4.22
2023-03-17T19:18:52.876Z,3.95
2023-03-17T19:23:59.891Z,3.72
2023-03-17T19:29:02.626Z,3.80
2023-03-17T19:34:05.406Z,3.75
2023-03-17T19:39:11.746Z,6.05
2023-03-17T19:44:14.462Z,3.33
2023-03-17T19:49:17.982Z,3.10
2023-03-17T19:54:23.409Z,2.90
2023-03-17T19:59:26.365Z,3.55
2023-03-17T20:04:29.208Z,3.38
2023-03-17T20:09:33.368Z,3.10
2023-03-17T20:14:36.075Z,4.38
2023-03-17T20:19:39.462Z,6.95
2023-03-17T20:24:43.634Z,11.82
2023-03-17T20:29:48.475Z,3.53
2023-03-17T20:34:51.283Z,4.00
2023-03-17T20:39:57.325Z,4.80
2023-03-17T20:45:00.131Z,4.30
2023-03-17T20:50:02.992Z,9.02
2023-03-17T20:55:08.437Z,7.40
2023-03-17T21:00:16.209Z,6.18
2023-03-17T21:05:21.145Z,4.90
2023-03-17T21:10:25.870Z,5.97
2023-03-17T21:15:29.467Z,4.95
2023-03-17T21:20:32.931Z,4.32
2023-03-17T21:25:38.053Z,6.28
2023-03-17T21:30:43.563Z,5.00
2023-03-17T21:35:47.193Z,5.10
2023-03-17T21:40:51.608Z,5.15
2023-03-17T21:45:54.497Z,5.97
2023-03-17T21:50:57.215Z,5.65
2023-03-17T21:56:01.329Z,4.90
2023-03-17T22:01:04.160Z,4.88
2023-03-17T22:06:07.865Z,5.03
2023-03-17T22:11:14.440Z,5.80
2023-03-17T22:16:18.236Z,6.35
2023-03-17T22:21:21.623Z,4.95
2023-03-17T22:26:25.773Z,8.40
2023-03-17T22:31:31.610Z,4.85
2023-03-17T22:36:34.497Z,6.30
2023-03-17T22:41:39.752Z,5.25
2023-03-17T22:46:42.495Z,4.78
2023-03-17T22:51:46.595Z,4.25
2023-03-17T22:56:50.796Z,4.50
2023-03-17T23:01:53.557Z,4.57
2023-03-17T23:06:56.342Z,5.28
2023-03-17T23:12:00.630Z,5.20
2023-03-17T23:17:03.545Z,5.15
2023-03-17T23:22:06.404Z,5.57
2023-03-17T23:27:10.648Z,5.45
2023-03-17T23:32:13.829Z,4.90
2023-03-17T23:37:16.840Z,5.15
2023-03-17T23:42:21.432Z,5.30
2023-03-17T23:47:24.576Z,4.63
2023-03-17T23:52:27.282Z,6.80
2023-03-17T23:57:31.586Z,4.53
